Time;durP1;ratioP1;P1;durP2;ratioP2;P2;SDS_P1;SDS_P2;PMS_P1;PMS_P2;Temp;Humidity;BMP_temperature;BMP_pressure;BME280_temperature;BME280_humidity;BME280_pressure;Samples;Min_cycle;Max_cycle;Signal;HPM_P1;HPM_P2
2023/05/18 00:01:57;;;;;;;24.20;7.50;;;;;;;7.43;87.54;96841.16;5071528;28;20045;-75
2023/05/18 00:04:24;;;;;;;20.80;6.57;;;;;;;7.41;87.40;96837.13;5070036;28;20045;-75
2023/05/18 00:06:55;;;;;;;28.75;7.32;;;;;;;7.40;87.49;96836.31;5071016;28;20058;-75
2023/05/18 00:09:24;;;;;;;24.55;7.03;;;;;;;7.40;87.87;96838.22;5075910;28;20133;-75
2023/05/18 00:11:50;;;;;;;18.52;6.30;;;;;;;7.38;87.32;96837.69;5079946;28;20048;-75
2023/05/18 00:14:17;;;;;;;29.67;7.65;;;;;;;7.37;87.34;96831.47;5068592;28;20056;-75
2023/05/18 00:16:44;;;;;;;22.85;6.78;;;;;;;7.35;88.10;96817.38;5070472;28;20036;-75
2023/05/18 00:19:13;;;;;;;26.42;7.13;;;;;;;7.37;88.70;96814.41;5077607;28;20450;-73
2023/05/18 00:21:40;;;;;;;22.05;6.82;;;;;;;7.35;88.24;96820.09;5079519;28;20094;-73
2023/05/18 00:24:09;;;;;;;31.58;7.78;;;;;;;7.29;87.82;96821.25;5070075;28;20040;-73
2023/05/18 00:26:37;;;;;;;20.60;6.60;;;;;;;7.26;87.54;96824.53;5071173;28;20048;-73
2023/05/18 00:29:04;;;;;;;33.40;9.48;;;;;;;7.21;87.36;96819.16;5068994;28;20063;-73
2023/05/18 00:31:34;;;;;;;21.27;6.93;;;;;;;7.19;87.48;96824.84;5079125;28;20059;-73
2023/05/18 00:34:01;;;;;;;26.00;7.03;;;;;;;7.14;87.07;96826.78;5071181;28;20098;-74
2023/05/18 00:36:28;;;;;;;20.88;6.53;;;;;;;7.12;86.59;96818.16;5070736;28;20036;-73
2023/05/18 00:38:54;;;;;;;13.77;5.32;;;;;;;7.06;86.69;96820.09;5071314;28;20567;-73
2023/05/18 00:41:21;;;;;;;20.13;6.10;;;;;;;7.03;86.66;96816.06;5078207;28;20048;-73
2023/05/18 00:43:49;;;;;;;22.55;6.80;;;;;;;7.01;86.58;96823.66;5085332;28;20037;-74
2023/05/18 00:46:15;;;;;;;18.92;5.85;;;;;;;6.99;86.34;96820.41;5071375;28;20044;-73
2023/05/18 00:48:42;;;;;;;20.83;6.32;;;;;;;6.98;86.12;96829.63;5077063;28;20044;-74
2023/05/18 00:51:10;;;;;;;24.03;6.70;;;;;;;6.93;86.48;96815.31;5076974;28;20044;-74
2023/05/18 00:53:36;;;;;;;33.20;8.10;;;;;;;6.88;86.69;96821.59;5083537;28;20036;-74
2023/05/18 00:56:03;;;;;;;15.77;6.03;;;;;;;6.87;86.79;96819.97;5090459;28;20709;-74
2023/05/18 00:58:31;;;;;;;28.23;7.68;;;;;;;6.85;86.49;96818.66;5080784;28;20037;-73
2023/05/18 01:01:01;;;;;;;16.90;6.55;;;;;;;6.89;86.85;96820.53;5077419;28;20044;-73
2023/05/18 01:03:28;;;;;;;33.03;7.65;;;;;;;6.88;86.53;96812.66;5078526;28;20524;-73
2023/05/18 01:05:56;;;;;;;24.65;6.68;;;;;;;6.88;86.59;96818.88;5070243;28;20094;-73
2023/05/18 01:08:23;;;;;;;19.88;5.80;;;;;;;6.86;86.63;96810.25;5067910;28;20049;-74
2023/05/18 01:10:54;;;;;;;19.35;5.95;;;;;;;6.78;86.27;96808.94;5078368;28;20673;-73
2023/05/18 01:13:29;;;;;;;28.35;6.55;;;;;;;6.75;86.14;96814.94;5070623;28;20511;-73
2023/05/18 01:16:00;;;;;;;22.25;6.05;;;;;;;6.70;85.99;96816.88;5069581;28;20045;-74
2023/05/18 01:18:34;;;;;;;24.02;6.75;;;;;;;6.61;85.91;96807.72;5077576;28;20541;-74
2023/05/18 01:21:12;;;;;;;22.92;6.38;;;;;;;6.54;85.85;96811.56;5072990;28;20048;-74
2023/05/18 01:24:03;;;;;;;27.08;6.53;;;;;;;6.47;85.81;96813.78;5079800;28;20036;-73
2023/05/18 01:26:36;;;;;;;22.70;6.40;;;;;;;6.45;86.23;96817.84;5090327;28;20039;-73
2023/05/18 01:29:05;;;;;;;23.42;6.45;;;;;;;6.42;87.19;96805.69;5084934;28;20127;-73
2023/05/18 01:31:32;;;;;;;23.30;6.43;;;;;;;6.38;87.24;96807.34;5062147;28;20052;-74
2023/05/18 01:33:58;;;;;;;23.67;6.47;;;;;;;6.37;87.33;96813.84;5069708;28;20055;-74
2023/05/18 01:36:25;;;;;;;21.50;6.45;;;;;;;6.35;87.18;96809.78;5082605;28;20492;-74
2023/05/18 01:38:53;;;;;;;14.32;5.50;;;;;;;6.32;87.04;96811.16;5080706;28;20067;-74
2023/05/18 01:41:22;;;;;;;19.00;6.30;;;;;;;6.32;87.59;96805.75;5081138;28;20052;-74
2023/05/18 01:43:55;;;;;;;23.48;6.47;;;;;;;6.36;89.14;96809.50;5071154;28;20041;-74
2023/05/18 01:46:28;;;;;;;;;;;;;;;6.38;89.62;96807.34;5068417;28;20412;-74
2023/05/18 01:49:00;;;;;;;26.30;6.82;;;;;;;6.35;89.26;96810.59;5078423;28;19919;-73
2023/05/18 01:51:32;;;;;;;23.90;6.40;;;;;;;6.33;89.19;96804.66;5081024;28;20044;-74
2023/05/18 01:54:02;;;;;;;22.67;5.93;;;;;;;6.30;88.93;96807.09;5089715;28;20040;-74
2023/05/18 01:56:30;;;;;;;33.88;7.50;;;;;;;6.26;88.89;96802.28;5089423;28;20039;-74
2023/05/18 01:58:59;;;;;;;22.50;6.38;;;;;;;6.29;89.21;96803.59;5071967;28;20039;-74
2023/05/18 02:01:25;;;;;;;23.38;6.65;;;;;;;6.33;89.41;96801.94;5077030;28;20075;-74
2023/05/18 02:03:52;;;;;;;48.28;9.40;;;;;;;6.34;89.79;96803.56;5066905;28;20044;-74
2023/05/18 02:06:18;;;;;;;29.20;7.47;;;;;;;6.35;89.70;96804.38;5072678;28;20041;-73
2023/05/18 02:08:45;;;;;;;19.90;6.20;;;;;;;6.39;89.99;96800.81;5083769;28;20035;-73
2023/05/18 02:11:12;;;;;;;28.02;7.60;;;;;;;6.41;90.39;96795.94;5074349;28;20050;-75
2023/05/18 02:13:38;;;;;;;32.17;7.70;;;;;;;6.47;91.21;96797.53;5068879;28;20044;-74
2023/05/18 02:16:07;;;;;;;23.23;7.00;;;;;;;6.56;91.75;96792.31;5069053;28;20404;-74
2023/05/18 02:18:35;;;;;;;28.98;7.95;;;;;;;6.56;91.08;96795.03;5069099;28;20059;-74
2023/05/18 02:21:02;;;;;;;24.42;6.97;;;;;;;6.57;90.44;96793.13;5080107;28;20511;-73
2023/05/18 02:23:30;;;;;;;32.97;8.45;;;;;;;6.60;90.00;96800.69;5068560;28;20047;-74
2023/05/18 02:25:56;;;;;;;28.02;7.45;;;;;;;6.60;90.12;96795.28;5069150;28;20515;-75
2023/05/18 02:28:23;;;;;;;20.40;5.97;;;;;;;6.57;89.42;96790.44;5070517;28;20048;-74
2023/05/18 02:30:50;;;;;;;20.98;6.88;;;;;;;6.56;89.35;96788.81;5081164;28;20044;-74
2023/05/18 02:33:18;;;;;;;24.23;7.15;;;;;;;6.54;89.22;96792.63;5071356;28;20048;-74
2023/05/18 02:35:45;;;;;;;21.08;6.55;;;;;;;6.54;89.14;96794.50;5075571;28;20516;-73
2023/05/18 02:38:11;;;;;;;22.80;7.40;;;;;;;6.50;88.82;96782.63;5068453;28;20079;-74
2023/05/18 02:40:38;;;;;;;28.75;7.13;;;;;;;6.49;88.74;96789.94;5080860;28;20044;-75
2023/05/18 02:43:04;;;;;;;23.98;7.13;;;;;;;6.45;88.74;96786.19;5081177;28;20048;-73
2023/05/18 02:45:31;;;;;;;23.13;6.63;;;;;;;6.43;89.01;96785.66;5069058;28;20040;-74
2023/05/18 02:47:57;;;;;;;38.10;8.85;;;;;;;6.40;88.54;96785.41;5075201;28;20041;-74
2023/05/18 02:50:25;;;;;;;25.27;7.70;;;;;;;6.37;88.48;96786.78;5082038;28;20044;-74
2023/05/18 02:52:51;;;;;;;22.58;6.95;;;;;;;6.33;88.77;96785.72;5068769;28;20071;-74
2023/05/18 02:55:18;;;;;;;29.30;7.43;;;;;;;6.30;88.59;96786.28;5068207;28;20044;-74
2023/05/18 02:57:45;;;;;;;25.45;6.93;;;;;;;6.30;89.21;96785.47;5068238;28;20036;-74
2023/05/18 03:00:15;;;;;;;26.48;7.68;;;;;;;6.30;89.77;96788.97;5076739;28;20048;-74
2023/05/18 03:02:43;;;;;;;25.15;7.05;;;;;;;6.28;89.77;96788.47;5089315;28;20499;-74
2023/05/18 03:05:09;;;;;;;21.42;7.40;;;;;;;6.26;89.64;96793.31;5088808;28;20044;-74
2023/05/18 03:07:37;;;;;;;29.13;7.32;;;;;;;6.25;89.83;96789.00;5075403;28;20051;-73
2023/05/18 03:10:04;;;;;;;23.17;7.20;;;;;;;6.25;89.82;96783.59;5068764;28;20048;-74
2023/05/18 03:12:30;;;;;;;24.20;7.20;;;;;;;6.25;89.57;96783.59;5075068;28;20040;-74
2023/05/18 03:14:57;;;;;;;21.05;6.82;;;;;;;6.22;89.69;96784.19;5091156;28;20044;-74
2023/05/18 03:17:23;;;;;;;29.83;7.40;;;;;;;6.19;89.64;96785.53;5074786;28;20492;-74
2023/05/18 03:19:50;;;;;;;21.65;6.70;;;;;;;6.18;89.58;96783.09;5075989;28;20032;-74
2023/05/18 03:22:16;;;;;;;25.05;7.40;;;;;;;6.19;90.14;96779.31;5082408;28;20060;-74
2023/05/18 03:24:44;;;;;;;26.40;7.60;;;;;;;6.21;90.18;96787.94;5072177;28;20407;-74
2023/05/18 03:27:15;;;;;;;28.23;8.07;;;;;;;6.19;90.54;96790.13;5071318;28;20036;-74
2023/05/18 03:29:41;;;;;;;27.30;7.53;;;;;;;6.22;91.10;96784.19;5084144;28;20052;-74
2023/05/18 03:32:08;;;;;;;32.15;8.30;;;;;;;6.26;91.64;96785.22;5077972;28;20404;-74
2023/05/18 03:34:35;;;;;;;25.08;7.50;;;;;;;6.30;91.83;96788.97;5071363;28;20103;-74
2023/05/18 03:37:02;;;;;;;27.23;7.78;;;;;;;6.34;92.06;96784.63;5071487;28;20065;-74
2023/05/18 03:39:29;;;;;;;27.83;7.88;;;;;;;6.34;92.10;96787.34;5071826;28;20046;-75
2023/05/18 03:41:57;;;;;;;25.08;7.97;;;;;;;6.38;92.16;96793.00;5077158;28;20048;-74
2023/05/18 03:44:23;;;;;;;22.98;7.32;;;;;;;6.37;91.75;96789.50;5083196;28;20495;-74
2023/05/18 03:46:50;;;;;;;22.73;7.25;;;;;;;6.33;91.68;96791.13;5084950;28;20671;-74
2023/05/18 03:49:16;;;;;;;27.80;7.72;;;;;;;6.28;91.54;96796.56;5086407;28;20040;-74
2023/05/18 03:51:43;;;;;;;24.40;7.10;;;;;;;6.21;91.19;96793.34;5071054;28;20044;-74
2023/05/18 03:54:09;;;;;;;32.63;7.95;;;;;;;6.16;91.24;96791.50;5079342;28;20055;-75
2023/05/18 03:56:36;;;;;;;24.60;7.47;;;;;;;6.16;91.32;96793.38;5091867;28;20046;-74
2023/05/18 03:59:05;;;;;;;22.45;7.30;;;;;;;6.14;91.30;96793.66;5076186;28;20044;-75
2023/05/18 04:01:32;;;;;;;25.77;7.15;;;;;;;6.11;91.49;96801.50;5072929;28;20123;-74
2023/05/18 04:03:59;;;;;;;24.60;7.45;;;;;;;6.11;91.48;96804.22;5081618;28;20040;-74
2023/05/18 04:06:26;;;;;;;16.90;6.60;;;;;;;6.13;91.66;96793.94;5089948;28;20048;-74
2023/05/18 04:08:52;;;;;;;25.75;7.93;;;;;;;6.15;92.18;96794.47;5092036;28;20051;-73
2023/05/18 04:11:20;;;;;;;41.72;9.68;;;;;;;6.22;92.62;96801.19;5089160;28;20385;-73
2023/05/18 04:13:47;;;;;;;24.23;8.38;;;;;;;6.31;93.41;96796.00;5083093;28;20063;-74
2023/05/18 04:16:15;;;;;;;27.55;9.50;;;;;;;6.32;94.35;96800.34;5084530;28;20079;-73
2023/05/18 04:18:41;;;;;;;26.42;9.15;;;;;;;6.36;94.62;96801.38;5076848;28;20051;-73
2023/05/18 04:21:08;;;;;;;25.52;9.23;;;;;;;6.43;95.16;96799.19;5074887;28;20377;-74
2023/05/18 04:23:37;;;;;;;40.08;10.68;;;;;;;6.51;95.48;96806.69;5086996;28;20048;-74
2023/05/18 04:26:04;;;;;;;25.13;9.43;;;;;;;6.59;95.28;96812.63;5071617;28;20047;-74
2023/05/18 04:28:31;;;;;;;28.67;9.48;;;;;;;6.64;95.19;96809.88;5073266;28;20143;-74
2023/05/18 04:30:58;;;;;;;25.83;9.13;;;;;;;6.64;95.33;96813.38;5073736;28;20060;-74
2023/05/18 04:33:26;;;;;;;27.70;9.10;;;;;;;6.70;95.56;96804.13;5081573;28;20052;-76
2023/05/18 04:35:53;;;;;;;30.58;9.27;;;;;;;6.77;95.97;96809.22;5086731;28;20048;-75
2023/05/18 04:38:22;;;;;;;29.65;10.60;;;;;;;6.72;96.15;96811.97;5072191;28;20057;-75
2023/05/18 04:40:48;;;;;;;24.20;9.00;;;;;;;6.68;96.68;96819.03;5087055;28;20040;-76
2023/05/18 04:43:16;;;;;;;31.60;9.57;;;;;;;6.84;96.78;96822.44;5084350;28;20052;-76
2023/05/18 04:45:45;;;;;;;31.55;10.20;;;;;;;6.92;96.57;96819.13;5087403;28;20050;-75
2023/05/18 04:48:13;;;;;;;27.95;8.88;;;;;;;7.00;96.56;96822.06;5086090;28;20056;-75
2023/05/18 04:50:40;;;;;;;25.00;10.40;;;;;;;7.01;96.71;96820.94;5083144;28;20071;-76
2023/05/18 04:53:07;;;;;;;30.55;9.80;;;;;;;7.09;96.65;96816.00;5077308;28;20040;-76
2023/05/18 04:55:34;;;;;;;26.45;8.98;;;;;;;7.10;96.52;96821.16;5071712;28;20512;-75
2023/05/18 04:58:01;;;;;;;25.05;8.32;;;;;;;7.14;96.08;96821.38;5071267;28;20048;-73
2023/05/18 05:00:29;;;;;;;31.85;9.45;;;;;;;7.21;95.71;96821.88;5077017;28;20040;-74
2023/05/18 05:02:57;;;;;;;23.65;8.40;;;;;;;7.28;95.90;96827.75;5076931;28;20051;-74
2023/05/18 05:05:25;;;;;;;25.45;9.05;;;;;;;7.36;95.60;96829.88;5073523;28;20051;-76
2023/05/18 05:07:54;;;;;;;27.05;8.80;;;;;;;7.27;95.66;96820.72;5074321;28;20098;-76
2023/05/18 05:10:21;;;;;;;30.63;8.95;;;;;;;7.27;95.51;96816.13;5084668;28;20050;-76
2023/05/18 05:12:49;;;;;;;28.60;9.07;;;;;;;7.21;95.41;96822.69;5073123;28;20100;-75
2023/05/18 05:15:16;;;;;;;39.13;9.25;;;;;;;7.11;95.54;96827.38;5072614;28;20040;-77
2023/05/18 05:17:43;;;;;;;28.20;8.88;;;;;;;7.16;95.99;96824.63;5073132;28;20036;-76
2023/05/18 05:20:10;;;;;;;26.13;7.88;;;;;;;7.36;94.94;96826.31;5089085;28;20044;-77
2023/05/18 05:22:36;;;;;;;28.42;8.27;;;;;;;7.50;95.11;96809.09;5081125;28;20048;-75
2023/05/18 05:25:07;;;;;;;28.58;8.60;;;;;;;7.63;94.89;96817.69;5081089;28;20849;-78
2023/05/18 05:27:33;;;;;;;36.22;9.98;;;;;;;7.74;95.53;96813.75;5094607;28;20050;-75
2023/05/18 05:30:00;;;;;;;27.33;8.60;;;;;;;7.87;95.53;96815.75;5094683;28;20040;-75
2023/05/18 05:32:27;;;;;;;29.77;8.70;;;;;;;7.96;95.54;96814.03;5089479;28;20048;-76
2023/05/18 05:34:53;;;;;;;36.78;8.95;;;;;;;7.87;94.74;96820.38;5074676;28;20551;-76
2023/05/18 05:37:20;;;;;;;26.90;7.45;;;;;;;8.09;95.10;96816.03;5073974;28;20452;-76
2023/05/18 05:39:46;;;;;;;26.95;8.07;;;;;;;8.24;94.00;96816.94;5074856;28;20056;-75
2023/05/18 05:42:14;;;;;;;36.45;8.48;;;;;;;8.37;93.76;96818.97;5073863;28;20052;-76
2023/05/18 05:44:41;;;;;;;32.75;8.35;;;;;;;8.45;93.70;96818.28;5095009;28;20047;-76
2023/05/18 05:47:08;;;;;;;32.67;8.63;;;;;;;8.35;92.98;96821.13;5072700;28;20063;-75
2023/05/18 05:49:35;;;;;;;29.23;8.40;;;;;;;8.42;92.96;96810.75;5069842;28;20473;-75
2023/05/18 05:52:01;;;;;;;28.63;8.20;;;;;;;8.31;91.96;96826.34;5077725;28;20057;-74
2023/05/18 05:54:27;;;;;;;27.17;7.70;;;;;;;8.41;91.85;96822.72;5074408;28;20040;-73
2023/05/18 05:56:54;;;;;;;24.58;7.57;;;;;;;8.32;92.26;96827.16;5066913;28;20052;-74
2023/05/18 05:59:22;;;;;;;40.22;9.27;;;;;;;8.40;92.12;96826.50;5074439;28;20047;-74
2023/05/18 06:01:48;;;;;;;17.90;6.47;;;;;;;8.52;91.52;96813.31;5079560;28;20044;-74
2023/05/18 06:04:15;;;;;;;32.90;8.52;;;;;;;8.61;91.19;96817.00;5074878;28;20067;-73
2023/05/18 06:06:42;;;;;;;32.92;8.38;;;;;;;8.73;90.59;96818.47;5066592;28;20100;-73
2023/05/18 06:09:09;;;;;;;37.95;9.10;;;;;;;8.71;91.07;96821.44;5065638;28;20052;-74
2023/05/18 06:11:35;;;;;;;32.60;8.10;;;;;;;8.60;90.68;96823.50;5065293;28;20049;-73
2023/05/18 06:14:02;;;;;;;35.05;8.85;;;;;;;8.69;90.44;96812.00;5066106;28;20048;-75
2023/05/18 06:16:30;;;;;;;39.33;9.30;;;;;;;8.62;91.36;96821.31;5067801;28;20412;-74
2023/05/18 06:18:56;;;;;;;27.23;8.27;;;;;;;8.67;90.98;96825.06;5086737;28;20640;-74
2023/05/18 06:21:23;;;;;;;37.05;9.45;;;;;;;8.88;90.85;96824.47;5085711;28;20048;-74
2023/05/18 06:23:50;;;;;;;33.95;8.45;;;;;;;9.05;90.56;96825.84;5077291;28;20051;-74
2023/05/18 06:26:16;;;;;;;31.58;8.32;;;;;;;9.10;90.59;96823.84;5074403;28;20052;-74
2023/05/18 06:28:43;;;;;;;31.02;8.50;;;;;;;9.21;90.68;96829.09;5066298;28;20055;-74
2023/05/18 06:31:09;;;;;;;35.65;9.05;;;;;;;8.92;90.56;96827.38;5065964;28;20051;-74
2023/05/18 06:33:37;;;;;;;35.08;8.88;;;;;;;9.20;89.75;96822.06;5067368;28;20748;-74
2023/05/18 06:36:04;;;;;;;33.95;8.38;;;;;;;9.26;89.90;96831.75;5077349;28;20040;-75
2023/05/18 06:38:31;;;;;;;31.13;8.45;;;;;;;9.17;90.21;96828.09;5072676;28;20500;-74
2023/05/18 06:40:57;;;;;;;28.63;8.38;;;;;;;9.40;90.66;96829.88;5072923;28;20048;-75
2023/05/18 06:43:27;;;;;;;32.45;9.25;;;;;;;9.24;88.64;96825.78;5063916;28;20055;-76
2023/05/18 06:45:53;;;;;;;34.17;8.73;;;;;;;9.52;89.27;96823.94;5066707;28;20135;-75
2023/05/18 06:48:20;;;;;;;33.40;8.77;;;;;;;9.67;89.27;96827.19;5066117;28;20048;-76
2023/05/18 06:50:48;;;;;;;32.95;8.90;;;;;;;9.65;88.76;96826.66;5069940;28;20056;-74
2023/05/18 06:53:14;;;;;;;28.95;8.27;;;;;;;9.69;88.71;96832.31;5068191;28;20056;-75
2023/05/18 06:55:41;;;;;;;33.17;9.02;;;;;;;9.78;89.71;96832.44;5075721;28;20466;-75
2023/05/18 06:58:07;;;;;;;43.42;10.02;;;;;;;9.84;88.03;96828.53;5067949;28;20423;-75
2023/05/18 07:00:34;;;;;;;36.65;9.05;;;;;;;9.77;83.33;96836.28;5069191;28;20695;-75
2023/05/18 07:03:00;;;;;;;31.67;8.30;;;;;;;9.66;84.10;96833.75;5066975;28;20068;-75
2023/05/18 07:05:27;;;;;;;41.97;9.77;;;;;;;9.76;83.75;96830.03;5076912;28;20039;-75
2023/05/18 07:07:55;;;;;;;27.98;7.80;;;;;;;9.99;84.14;96822.78;5080804;28;20151;-75
2023/05/18 07:10:22;;;;;;;32.78;8.48;;;;;;;10.02;82.65;96829.53;5088703;28;20103;-76
2023/05/18 07:12:48;;;;;;;29.17;7.93;;;;;;;9.89;80.72;96834.66;5067813;28;20064;-76
2023/05/18 07:15:15;;;;;;;33.30;8.27;;;;;;;9.98;79.50;96831.25;5077134;28;20053;-75
2023/05/18 07:17:42;;;;;;;34.50;8.52;;;;;;;10.18;78.54;96828.94;5069220;28;20049;-76
2023/05/18 07:20:09;;;;;;;33.88;8.48;;;;;;;10.17;76.73;96835.47;5068578;28;20427;-75
2023/05/18 07:22:36;;;;;;;39.10;8.30;;;;;;;10.36;78.87;96832.66;5068839;28;20076;-75
2023/05/18 07:25:04;;;;;;;32.80;7.65;;;;;;;10.47;77.83;96835.97;5074284;28;20462;-76
2023/05/18 07:27:32;;;;;;;33.17;7.50;;;;;;;10.56;74.75;96836.88;5078007;28;20075;-76
2023/05/18 07:29:58;;;;;;;32.08;7.18;;;;;;;10.72;73.68;96840.06;5069270;28;20068;-76
2023/05/18 07:32:25;;;;;;;35.22;7.45;;;;;;;10.81;74.34;96826.53;5067395;28;20076;-75
2023/05/18 07:34:51;;;;;;;29.02;7.63;;;;;;;10.76;73.42;96830.16;5080883;28;20097;-76
2023/05/18 07:37:17;;;;;;;32.00;7.70;;;;;;;10.87;72.88;96837.00;5088989;28;20048;-75
2023/05/18 07:39:45;;;;;;;28.20;6.95;;;;;;;11.04;75.71;96838.25;5089642;28;20048;-75
2023/05/18 07:42:12;;;;;;;32.28;6.93;;;;;;;11.05;72.36;96829.75;5080293;28;20055;-76
2023/05/18 07:44:39;;;;;;;37.92;7.40;;;;;;;10.90;70.67;96828.19;5070355;28;20530;-76
2023/05/18 07:47:06;;;;;;;32.65;7.10;;;;;;;10.85;72.10;96828.28;5074074;28;20048;-75
2023/05/18 07:49:32;;;;;;;36.42;7.70;;;;;;;11.08;74.24;96831.88;5086585;28;20047;-75
2023/05/18 07:51:59;;;;;;;26.27;6.00;;;;;;;11.05;70.62;96832.47;5084771;28;20492;-75
2023/05/18 07:54:26;;;;;;;38.05;6.82;;;;;;;11.33;70.22;96826.88;5076318;28;20126;-75
2023/05/18 07:56:52;;;;;;;32.05;6.30;;;;;;;11.51;69.84;96831.34;5072685;28;20048;-75
2023/05/18 07:59:20;;;;;;;38.03;7.13;;;;;;;11.72;67.85;96829.69;5079391;28;20063;-76
2023/05/18 08:01:47;;;;;;;39.78;6.78;;;;;;;12.12;66.55;96824.28;5085755;28;20044;-75
2023/05/18 08:04:14;;;;;;;39.90;6.97;;;;;;;12.84;62.11;96831.13;5076387;28;20052;-77
2023/05/18 08:06:40;;;;;;;34.45;6.03;;;;;;;13.13;62.68;96825.03;5087555;28;20670;-75
2023/05/18 08:09:07;;;;;;;28.85;6.03;;;;;;;13.49;59.09;96834.84;5088408;28;20044;-78
2023/05/18 08:11:33;;;;;;;37.80;6.65;;;;;;;13.63;58.55;96843.69;5074381;28;20070;-76
2023/05/18 08:14:00;;;;;;;37.33;6.60;;;;;;;13.71;57.50;96836.56;5079342;28;20052;-76
2023/05/18 08:16:28;;;;;;;25.15;5.25;;;;;;;13.85;57.52;96826.22;5087817;28;20051;-76
2023/05/18 08:18:54;;;;;;;25.38;5.47;;;;;;;13.06;57.54;96832.94;5060850;28;20068;-75
2023/05/18 08:21:21;;;;;;;35.00;6.68;;;;;;;12.79;61.12;96829.41;5081454;28;20044;-76
2023/05/18 08:23:47;;;;;;;29.38;6.20;;;;;;;12.56;60.79;96830.63;5066770;28;20051;-75
2023/05/18 08:26:14;;;;;;;26.58;5.95;;;;;;;12.36;61.46;96837.50;5076706;28;20044;-77
2023/05/18 08:28:40;;;;;;;38.60;7.22;;;;;;;11.91;62.35;96839.59;5076801;28;20044;-75
2023/05/18 08:31:07;;;;;;;31.17;6.18;;;;;;;12.13;62.58;96841.47;5067045;28;20071;-78
2023/05/18 08:33:34;;;;;;;30.85;6.10;;;;;;;12.57;61.88;96840.44;5076732;28;20048;-75
2023/05/18 08:36:01;;;;;;;29.73;5.93;;;;;;;12.32;61.07;96842.00;5068428;28;20056;-74
2023/05/18 08:38:27;;;;;;;22.08;5.30;;;;;;;12.21;61.24;96857.84;5068507;28;20048;-75
2023/05/18 08:41:02;;;;;;;39.70;6.65;;;;;;;12.16;62.00;96844.38;5058891;28;20049;-74
2023/05/18 08:43:32;;;;;;;31.05;7.18;;;;;;;12.36;62.82;96836.69;5075852;28;20044;-75
2023/05/18 08:46:04;;;;;;;25.10;4.95;;;;;;;12.46;60.76;96837.19;5064894;28;20044;-75
2023/05/18 08:48:32;;;;;;;36.70;6.63;;;;;;;12.54;59.64;96838.34;5076528;28;20480;-74
2023/05/18 08:51:01;;;;;;;42.83;7.32;;;;;;;12.62;57.64;96829.34;5085175;28;20051;-76
2023/05/18 08:53:29;;;;;;;32.88;5.78;;;;;;;12.89;59.15;96830.19;5070877;28;20048;-75
2023/05/18 08:55:57;;;;;;;40.13;5.95;;;;;;;12.93;59.17;96822.94;5060105;28;20488;-76
2023/05/18 08:58:35;;;;;;;30.90;5.45;;;;;;;12.93;58.87;96821.03;5068189;28;20071;-74
2023/05/18 09:01:02;;;;;;;26.27;5.63;;;;;;;12.97;59.56;96819.25;5069371;28;20534;-76
2023/05/18 09:03:29;;;;;;;26.52;5.13;;;;;;;12.82;59.98;96832.59;5078958;28;20040;-75
2023/05/18 09:05:59;;;;;;;22.73;4.95;;;;;;;12.61;61.11;96822.28;5065298;28;20049;-74
2023/05/18 09:08:28;;;;;;;20.55;4.50;;;;;;;12.55;61.47;96820.84;5066493;28;20045;-75
2023/05/18 09:10:57;;;;;;;12.65;3.35;;;;;;;12.86;64.44;96817.97;5071687;28;20047;-76
2023/05/18 09:13:23;;;;;;;15.00;4.45;;;;;;;12.76;59.15;96829.22;5070529;28;20055;-76
2023/05/18 09:15:51;;;;;;;19.20;4.82;;;;;;;12.67;59.73;96818.28;5073167;28;20036;-75
2023/05/18 09:18:17;;;;;;;19.98;4.40;;;;;;;12.73;59.92;96824.38;5083059;28;20044;-75
2023/05/18 09:20:44;;;;;;;19.17;4.40;;;;;;;13.06;64.34;96820.06;5073935;28;20044;-75
2023/05/18 09:23:11;;;;;;;12.95;3.88;;;;;;;13.35;57.67;96823.28;5079230;28;20032;-75
2023/05/18 09:25:43;;;;;;;22.02;4.85;;;;;;;13.50;56.58;96830.97;5074812;28;20683;-75
2023/05/18 09:28:11;;;;;;;20.30;4.72;;;;;;;13.38;57.65;96825.38;5086031;28;20051;-75
2023/05/18 09:30:41;;;;;;;22.35;4.55;;;;;;;13.28;59.66;96832.78;5071327;28;20048;-75
2023/05/18 09:33:16;;;;;;;20.67;5.35;;;;;;;13.14;59.85;96823.09;5076115;28;20044;-77
2023/05/18 09:35:44;;;;;;;18.15;4.25;;;;;;;13.07;59.68;96826.34;5080606;28;20044;-77
2023/05/18 09:38:12;;;;;;;21.85;5.20;;;;;;;13.05;61.66;96821.19;5076957;28;20044;-75
2023/05/18 09:40:44;;;;;;;13.45;3.92;;;;;;;13.20;60.34;96817.16;5074583;28;20063;-75
2023/05/18 09:43:10;;;;;;;23.77;4.95;;;;;;;13.14;60.02;96832.13;5073703;28;20499;-74
2023/05/18 09:45:42;;;;;;;21.88;4.75;;;;;;;12.98;59.27;96820.88;5069751;28;20040;-76
2023/05/18 09:48:09;;;;;;;24.05;4.85;;;;;;;12.68;59.53;96821.81;5078709;28;20053;-76
2023/05/18 09:50:36;;;;;;;18.27;4.43;;;;;;;12.52;59.69;96830.47;5081117;28;20036;-76
2023/05/18 09:53:06;;;;;;;14.30;4.30;;;;;;;12.58;58.50;96828.41;5084864;28;20559;-77
2023/05/18 09:55:32;;;;;;;24.95;5.30;;;;;;;12.58;60.79;96822.13;5075324;28;20040;-76
2023/05/18 09:58:02;;;;;;;20.60;4.63;;;;;;;12.57;59.71;96829.50;5077272;28;20045;-76
2023/05/18 10:00:28;;;;;;;19.63;4.63;;;;;;;12.55;58.64;96834.50;5076687;28;20056;-77
2023/05/18 10:02:55;;;;;;;14.15;3.90;;;;;;;12.64;58.51;96818.94;5076458;28;20040;-76
2023/05/18 10:05:23;;;;;;;25.15;5.32;;;;;;;12.47;58.44;96822.41;5084966;28;20044;-76
2023/05/18 10:07:51;;;;;;;20.83;4.47;;;;;;;12.62;60.08;96817.63;5089072;28;20109;-76
2023/05/18 10:10:19;;;;;;;16.08;4.53;;;;;;;12.75;60.81;96817.50;5096565;28;20052;-76
2023/05/18 10:12:46;;;;;;;18.10;4.32;;;;;;;12.69;57.17;96824.25;5085541;28;20037;-76
2023/05/18 10:15:16;;;;;;;15.73;4.05;;;;;;;12.73;57.95;96827.13;5071134;28;20054;-76
2023/05/18 10:17:43;;;;;;;19.42;4.18;;;;;;;12.90;57.20;96816.22;5074036;28;20534;-77
2023/05/18 10:20:11;;;;;;;20.60;4.85;;;;;;;12.97;59.19;96821.19;5092380;28;20048;-76
2023/05/18 10:22:37;;;;;;;14.25;3.65;;;;;;;13.25;61.09;96814.28;5073421;28;20824;-76
2023/05/18 10:25:05;;;;;;;14.93;3.40;;;;;;;13.61;58.39;96815.00;5079548;28;20051;-76
2023/05/18 10:27:35;;;;;;;18.65;4.28;;;;;;;13.72;54.22;96817.06;5084505;28;20051;-77
2023/05/18 10:30:04;;;;;;;13.63;3.83;;;;;;;13.66;53.64;96812.09;5081019;28;20063;-79
2023/05/18 10:32:35;;;;;;;19.20;3.92;;;;;;;13.66;56.54;96812.09;5096501;28;20388;-77
2023/05/18 10:35:04;;;;;;;19.48;3.97;;;;;;;13.63;56.50;96816.31;5084898;28;20141;-79
2023/05/18 10:37:33;;;;;;;16.42;4.00;;;;;;;13.33;53.93;96820.88;5084961;28;20068;-77
2023/05/18 10:40:01;;;;;;;19.98;4.43;;;;;;;13.12;55.51;96817.16;5079778;28;20048;-76
2023/05/18 10:42:30;;;;;;;14.77;3.35;;;;;;;12.96;56.59;96816.84;5075924;28;20051;-77
2023/05/18 10:45:00;;;;;;;17.85;4.25;;;;;;;12.96;58.00;96811.38;5081664;28;20044;-76
2023/05/18 10:47:27;;;;;;;19.95;5.13;;;;;;;13.30;58.48;96808.63;5082366;28;20046;-76
2023/05/18 10:49:55;;;;;;;21.80;4.70;;;;;;;13.74;56.55;96817.56;5073984;28;20407;-75
2023/05/18 10:52:21;;;;;;;20.10;4.88;;;;;;;13.59;54.31;96815.34;5074755;28;20058;-75
2023/05/18 10:54:48;;;;;;;24.40;4.72;;;;;;;13.42;54.53;96808.00;5075464;28;20077;-78
2023/05/18 10:57:17;;;;;;;19.67;4.32;;;;;;;13.16;53.18;96813.47;5079443;28;20070;-75
2023/05/18 10:59:46;;;;;;;17.75;4.00;;;;;;;13.19;55.53;96815.53;5088486;28;20040;-75
2023/05/18 11:02:14;;;;;;;14.65;3.50;;;;;;;13.13;55.38;96814.09;5077226;28;20044;-77
2023/05/18 11:04:41;;;;;;;22.65;4.30;;;;;;;13.25;54.59;96817.00;5073455;28;20457;-76
2023/05/18 11:07:12;;;;;;;17.35;3.97;;;;;;;13.19;54.63;96818.28;5080439;28;20048;-77
2023/05/18 11:09:42;;;;;;;15.85;3.72;;;;;;;13.35;54.72;96812.34;5094405;28;20059;-75
2023/05/18 11:12:12;;;;;;;11.30;3.60;;;;;;;13.70;52.28;96808.41;5081079;28;20075;-76
2023/05/18 11:14:50;;;;;;;38.10;6.97;;;;;;;14.04;53.80;96801.16;5080606;28;20051;-76
2023/05/18 11:17:21;;;;;;;14.80;3.40;;;;;;;14.15;54.60;96807.06;5075761;28;20049;-77
2023/05/18 11:20:13;;;;;;;16.63;4.07;;;;;;;13.96;54.05;96813.78;5073574;28;20052;-77
2023/05/18 11:23:03;;;;;;;15.85;3.70;;;;;;;14.14;54.80;96803.53;5073590;28;20549;-75
2023/05/18 11:25:39;;;;;;;22.30;4.40;;;;;;;14.05;54.53;96802.78;5066144;28;20066;-77
2023/05/18 11:28:08;;;;;;;19.38;4.70;;;;;;;13.99;53.79;96809.56;5081451;28;20052;-77
2023/05/18 11:30:47;;;;;;;16.30;3.90;;;;;;;14.15;52.17;96809.81;5074103;28;20048;-76
2023/05/18 11:33:14;;;;;;;21.52;4.28;;;;;;;14.18;54.65;96803.69;5071564;28;20491;-77
2023/05/18 11:36:10;;;;;;;20.65;4.47;;;;;;;13.96;52.21;96805.56;5079486;28;20068;-76